Ana Sayfa
METAR-TAF:

METAR-TAF

Havaalanları :

İstanköy, Yunanistan

Enlem: 36-47N, Boylam: 027-04E, yükseklik: 129 m

Güncel hava durumu gözlemi

Rapor saat 12:20 UTC de 39 dakika önce yapıldı.
Rüzgar kuzeybatıdan 14 kt, batı ve kuzey arasında değişken
Sıcaklık 30°C
Nem 49%
Basınç 1007 hPa
Görüş mesafesi 10 km veya daha fazla
3000 ft yükseklikte az bulutlu

METAR: LGKO 201220Z 31014KT 270V350 9999 FEW030 30/18 Q1007

Saat: 15:59 (12:59 UTC)

Tahmin

Rapor saat 11:00 UTC de 1 saat ve 59 dakika önce yapıldı.
Ayın 20'si saat 12 UTC'den ayın 21'si saat 12 UTC'ye kadar geçerli Tahmin
Rüzgar batı/kuzeybatıdan 15 kt
Görüş mesafesi 10 km veya daha fazla
2500 ft yükseklikte az bulutlu

TAF: LGKO 201100Z 2012/2112 30015KT 9999 FEW025

4.000'den fazla havaalanı için hava durumu gözlemleri ve tahminleri (METAR ve TAF raporları).

Kullanılabilir istasyonlar harita üzerinde sarı ve kırmızı noktalarla gösterilir.

İstasyonun adını görmek için fareyi noktanın üzerinde gezdirin.

Sonrasında hava gözlem ve tahminlerini görmek için tıklayın.

Haritayı değiştirmek için: yaklaştırmak için siyah artı işaretli yeşil düğmeye ve uzaklaştırmak için de eksi işaretli düğmeye hızla tıklayın; bitişik haritalar için yeşil okları kullanın.


METAR-TAF: